Time;durP1;ratioP1;P1;durP2;ratioP2;P2;SDS_P1;SDS_P2;PMS_P1;PMS_P2;Temp;Humidity;BMP_temperature;BMP_pressure;BME280_temperature;BME280_humidity;BME280_pressure;Samples;Min_cycle;Max_cycle;Signal;HPM_P1;HPM_P2
2021/08/30 00:13:16;;;;;;;;;;;;;;;;;;;;;
2021/08/30 00:16:03;;;;;;;0.20;0.20;;;;;;;15.07;49.10;92403.00;4958742;29;20075;-92
2021/08/30 00:22:47;;;;;;;0.20;0.20;;;;;;;15.15;48.55;92407.47;4956939;29;20091;-92
2021/08/30 00:29:11;;;;;;;0.22;0.22;;;;;;;15.18;48.79;92403.44;4957535;29;20449;-91
2021/08/30 00:31:42;;;;;;;0.20;0.20;;;;;;;15.13;49.39;92400.94;4956427;29;20047;-91
2021/08/30 00:34:20;;;;;;;0.22;0.22;;;;;;;15.10;49.18;92401.59;4940850;29;20039;-90
2021/08/30 00:37:35;;;;;;;0.20;0.20;;;;;;;15.09;49.58;92411.38;4891271;29;20123;-91
2021/08/30 00:44:15;;;;;;;0.10;0.10;;;;;;;14.85;54.17;92405.84;4957293;29;20038;-91
2021/08/30 00:50:38;;;;;;;0.20;0.20;;;;;;;14.59;54.96;92406.69;4956378;29;20083;-91
2021/08/30 00:57:01;;;;;;;1.55;0.30;;;;;;;14.45;55.08;92419.22;4956524;28;20061;-91
2021/08/30 00:59:56;;;;;;;0.20;0.20;;;;;;;14.37;55.31;92407.59;4878483;29;20132;-91
2021/08/30 01:02:25;;;;;;;0.30;0.30;;;;;;;14.26;55.91;92396.59;4926681;28;20040;-91
2021/08/30 01:09:46;;;;;;;0.20;0.20;;;;;;;14.15;57.84;92404.03;4897507;29;20107;-91
2021/08/30 04:36:26;;;;;;;0.30;0.30;;;;;;;13.48;64.66;92384.13;4974112;28;20538;-92
2021/08/30 04:38:57;;;;;;;0.30;0.30;;;;;;;13.54;64.96;92387.41;4943411;28;20051;-92
2021/08/30 04:41:49;;;;;;;0.40;0.40;;;;;;;13.40;64.90;92377.00;4906156;28;20561;-93
2021/08/30 04:44:19;;;;;;;0.55;0.52;;;;;;;13.34;65.22;92378.22;4962599;28;20043;-92
2021/08/30 04:46:48;;;;;;;0.52;0.47;;;;;;;13.36;64.93;92386.59;4941034;28;20094;-93
2021/08/30 04:49:16;;;;;;;0.30;0.30;;;;;;;13.34;65.44;92391.38;4954274;28;20054;-92
2021/08/30 04:51:49;;;;;;;0.30;0.30;;;;;;;13.27;65.48;92389.16;4948895;28;20062;-92
2021/08/30 04:54:32;;;;;;;0.40;0.40;;;;;;;13.31;65.56;92394.63;4952988;28;20110;-92
2021/08/30 04:56:58;;;;;;;0.30;0.30;;;;;;;13.42;65.53;92390.63;4948887;28;20043;-93
2021/08/30 04:59:28;;;;;;;0.30;0.30;;;;;;;13.44;65.17;92392.94;4937293;28;20060;-92
2021/08/30 05:02:13;;;;;;;0.30;0.30;;;;;;;13.42;64.82;92395.91;4951197;28;20130;-91
2021/08/30 05:04:59;;;;;;;0.30;0.30;;;;;;;13.44;64.85;92391.09;4936521;28;20091;-92
2021/08/30 05:07:25;;;;;;;0.30;0.30;;;;;;;13.44;64.81;92383.22;4951718;28;20099;-94
2021/08/30 05:09:51;;;;;;;0.30;0.30;;;;;;;13.54;65.00;92396.06;4950226;28;20066;-92
2021/08/30 05:12:29;;;;;;;;;;;;;;;;;;;;;
2021/08/30 05:14:58;;;;;;;0.20;0.20;;;;;;;13.60;64.69;92395.91;4972092;28;20102;-92
2021/08/30 05:17:26;;;;;;;0.30;0.30;;;;;;;13.66;64.80;92394.69;4939213;28;20082;-93
2021/08/30 05:19:59;;;;;;;0.85;0.50;;;;;;;13.61;64.85;92386.97;4950620;28;20066;-92
2021/08/30 05:22:33;;;;;;;2.28;0.68;;;;;;;13.65;64.46;92398.41;4934993;29;20122;-91
2021/08/30 05:25:08;;;;;;;0.68;0.65;;;;;;;13.66;64.35;92395.47;4942025;28;20518;-92
2021/08/30 05:27:34;;;;;;;0.30;0.30;;;;;;;13.69;64.15;92391.44;4936436;29;20058;-91
2021/08/30 05:30:06;;;;;;;0.63;0.60;;;;;;;13.71;64.40;92397.19;4962533;28;20031;-93
2021/08/30 05:32:51;;;;;;;0.30;0.30;;;;;;;13.71;63.96;92389.28;4939731;29;20058;-92
2021/08/30 05:35:16;;;;;;;0.68;0.60;;;;;;;13.84;64.13;92401.53;4950877;28;20054;-93
2021/08/30 05:37:42;;;;;;;0.38;0.38;;;;;;;13.90;63.79;92397.69;4983720;28;20053;-91
2021/08/30 05:40:12;;;;;;;0.32;0.32;;;;;;;13.98;63.88;92395.34;4975464;28;20360;-93
2021/08/30 05:42:42;;;;;;;0.40;0.40;;;;;;;14.05;64.13;92391.19;4968923;28;20046;-92
2021/08/30 05:45:17;;;;;;;0.30;0.30;;;;;;;14.16;64.59;92402.97;4982385;28;20077;-92
2021/08/30 05:47:48;;;;;;;0.40;0.40;;;;;;;14.24;64.67;92403.28;4970738;28;20403;-92
2021/08/30 05:50:16;;;;;;;0.30;0.30;;;;;;;14.31;64.33;92404.34;4980850;28;20054;-92
2021/08/30 05:52:44;;;;;;;0.50;0.50;;;;;;;14.45;64.09;92404.16;4973204;28;20458;-92
2021/08/30 05:55:25;;;;;;;;;;;;;;;;;;;;;
2021/08/30 05:58:03;;;;;;;0.30;0.30;;;;;;;14.76;65.08;92414.53;4974112;28;20081;-93
2021/08/30 06:00:31;;;;;;;0.52;0.50;;;;;;;14.88;64.39;92418.41;5002161;28;20074;-93
2021/08/30 06:02:59;;;;;;;0.40;0.40;;;;;;;14.91;63.54;92405.38;4989653;28;20074;-92
2021/08/30 06:05:25;;;;;;;0.40;0.40;;;;;;;15.05;62.83;92407.81;4984414;28;20081;-94
2021/08/30 06:07:56;;;;;;;0.52;0.40;;;;;;;15.25;61.76;92411.63;4974493;28;20050;-92
2021/08/30 06:10:29;;;;;;;0.73;0.43;;;;;;;15.39;61.02;92416.69;5007394;28;20499;-92
2021/08/30 06:12:55;;;;;;;0.95;0.38;;;;;;;15.49;59.75;92405.78;4989882;28;20090;-94
2021/08/30 06:15:22;;;;;;;0.30;0.30;;;;;;;15.76;59.57;92424.91;4981825;28;20073;-92
2021/08/30 06:17:54;;;;;;;0.38;0.38;;;;;;;16.41;58.75;92426.19;4979413;28;20120;-92
2021/08/30 06:20:25;;;;;;;0.40;0.40;;;;;;;17.06;55.14;92415.19;4992336;28;20046;-93
2021/08/30 06:22:53;;;;;;;0.30;0.30;;;;;;;16.78;52.09;92423.69;4993854;28;20070;-93
2021/08/30 06:25:23;;;;;;;0.30;0.30;;;;;;;16.53;53.83;92416.78;4997506;28;20050;-94
2021/08/30 06:27:50;;;;;;;0.35;0.35;;;;;;;16.44;57.54;92414.97;4997280;28;20038;-92
2021/08/30 06:30:18;;;;;;;0.50;0.50;;;;;;;17.50;54.89;92412.84;4986223;28;20065;-92
2021/08/30 06:32:44;;;;;;;0.55;0.47;;;;;;;17.72;53.99;92424.88;4994249;28;20375;-93
2021/08/30 06:35:30;;;;;;;0.50;0.50;;;;;;;18.35;51.64;92421.81;4971880;28;20055;-91
2021/08/30 06:37:59;;;;;;;0.35;0.35;;;;;;;18.86;52.30;92424.75;4973522;28;20129;-91
2021/08/30 06:40:27;;;;;;;0.30;0.30;;;;;;;17.97;52.40;92409.75;4989708;28;20113;-91
2021/08/30 06:43:03;;;;;;;0.30;0.30;;;;;;;17.42;54.50;92411.06;4970908;28;20050;-92
2021/08/30 06:45:34;;;;;;;0.35;0.35;;;;;;;18.49;54.28;92422.22;5002613;28;20057;-90
2021/08/30 06:48:01;;;;;;;0.40;0.40;;;;;;;18.39;53.05;92419.25;4962575;28;20412;-89
2021/08/30 06:50:27;;;;;;;0.40;0.38;;;;;;;17.90;55.05;92417.50;4996905;28;20034;-91
2021/08/30 07:01:07;;;;;;;0.52;0.40;;;;;;;23.87;39.30;92405.19;4997075;28;20049;-90
2021/08/30 07:15:56;;;;;;;0.32;0.32;;;;;;;21.54;47.49;92407.72;4993971;28;20439;-91
2021/08/30 07:22:28;;;;;;;1.27;0.60;;;;;;;20.70;49.83;92408.50;4995829;28;20137;-91
2021/08/30 07:25:34;;;;;;;2.10;0.70;;;;;;;19.49;51.95;92402.06;4923717;29;20047;-91
2021/08/30 07:32:00;;;;;;;;;;;;;;;18.56;54.60;92412.94;4996943;28;20499;-91
2021/08/30 07:35:08;;;;;;;0.95;0.52;;;;;;;18.37;54.72;92413.53;4971772;28;20004;-91
2021/08/30 07:38:11;;;;;;;0.40;0.40;;;;;;;18.51;55.55;92411.28;4936944;29;20102;-91
2021/08/30 07:40:55;;;;;;;0.70;0.55;;;;;;;18.20;55.80;92417.22;4923138;29;20064;-91
2021/08/30 07:43:26;;;;;;;0.40;0.40;;;;;;;18.55;55.42;92408.72;4904751;29;20058;-90
2021/08/30 10:03:21;;;;;;;0.30;0.30;;;;;;;20.34;45.96;92429.78;4958008;28;20106;-93
2021/08/30 10:05:51;;;;;;;0.30;0.30;;;;;;;20.91;47.16;92422.19;4942415;28;20038;-95
2021/08/30 10:08:29;;;;;;;1.23;0.50;;;;;;;20.59;49.24;92422.34;4956030;28;20133;-91
2021/08/30 10:11:03;;;;;;;0.40;0.40;;;;;;;20.54;49.57;92422.59;4945726;28;20061;-92
2021/08/30 10:13:32;;;;;;;0.43;0.43;;;;;;;20.79;49.46;92422.34;4955436;28;20508;-92
2021/08/30 10:16:01;;;;;;;0.40;0.40;;;;;;;21.04;47.79;92422.06;4945870;29;20043;-91
2021/08/30 10:18:35;;;;;;;0.35;0.30;;;;;;;20.21;49.03;92419.63;4941656;29;20055;-92
2021/08/30 10:21:14;;;;;;;;;;;;;;;20.11;50.44;92426.25;4950739;28;20051;-91
2021/08/30 10:23:45;;;;;;;0.38;0.38;;;;;;;20.49;50.57;92419.44;4958962;28;19922;-91
2021/08/30 10:26:23;;;;;;;1.23;0.73;;;;;;;20.51;49.28;92420.66;4960217;28;20035;-90
2021/08/30 10:29:11;;;;;;;0.20;0.20;;;;;;;20.33;48.72;92416.84;4927992;28;20074;-91
2021/08/30 10:31:49;;;;;;;0.88;0.50;;;;;;;21.24;48.32;92422.78;4944430;28;20047;-92
2021/08/30 10:34:32;;;;;;;0.70;0.70;;;;;;;21.18;48.88;92420.41;4960527;28;20406;-91
2021/08/30 10:37:07;;;;;;;1.00;0.70;;;;;;;20.59;50.52;92421.59;4944824;28;20515;-91
2021/08/30 10:39:51;;;;;;;0.38;0.38;;;;;;;20.73;48.71;92415.78;4959810;28;20106;-91
2021/08/30 10:42:34;;;;;;;;;;;;;;;;;;;;;
2021/08/30 10:45:04;;;;;;;0.45;0.45;;;;;;;21.46;47.73;92413.28;4947377;28;20057;-91
2021/08/30 10:47:40;;;;;;;0.47;0.40;;;;;;;21.04;50.66;92414.06;4960330;28;20141;-93
2021/08/30 10:50:24;;;;;;;0.30;0.30;;;;;;;21.23;48.03;92414.00;4977102;28;20038;-93
2021/08/30 10:53:08;;;;;;;0.45;0.38;;;;;;;20.97;47.15;92412.06;4958095;28;20061;-92
2021/08/30 10:55:51;;;;;;;1.08;0.68;;;;;;;21.29;46.42;92409.94;4956111;28;20065;-92
2021/08/30 10:58:26;;;;;;;0.55;0.50;;;;;;;21.58;46.75;92410.47;4945338;29;20047;-94
2021/08/30 11:01:13;;;;;;;0.47;0.45;;;;;;;21.66;47.46;92417.44;4947784;29;20520;-93
2021/08/30 11:04:04;;;;;;;;;;;;;;;;;;;;;
2021/08/30 11:06:38;;;;;;;0.47;0.43;;;;;;;20.52;48.03;92408.88;4967532;28;20054;-92
2021/08/30 11:09:16;;;;;;;1.10;0.50;;;;;;;21.36;46.10;92402.06;4977054;28;20045;-91
2021/08/30 11:11:55;;;;;;;0.43;0.40;;;;;;;21.53;45.58;92398.22;4975640;28;20078;-92
2021/08/30 11:14:28;;;;;;;0.65;0.47;;;;;;;21.57;48.80;92398.25;4960328;28;20137;-91
2021/08/30 11:16:55;;;;;;;0.45;0.45;;;;;;;21.32;46.77;92403.16;4929993;29;20056;-93
2021/08/30 11:19:25;;;;;;;1.00;0.60;;;;;;;22.22;47.75;92405.31;4882543;29;20040;-93
2021/08/30 11:22:05;;;;;;;1.00;0.60;;;;;;;21.75;46.86;92407.31;4906795;29;20057;-92
2021/08/30 11:24:40;;;;;;;0.50;0.50;;;;;;;21.70;48.40;92404.94;4902966;29;20475;-93
2021/08/30 11:27:16;;;;;;;1.67;0.93;;;;;;;21.90;43.40;92402.19;4920357;29;20040;-93
2021/08/30 11:29:58;;;;;;;1.02;0.68;;;;;;;22.17;45.71;92416.28;4919206;29;20048;-93
2021/08/30 11:32:26;;;;;;;0.50;0.50;;;;;;;22.29;44.71;92415.31;4914382;29;20447;-92
2021/08/30 11:34:59;;;;;;;0.50;0.50;;;;;;;22.88;43.59;92400.44;4921583;29;20054;-93
2021/08/30 11:37:32;;;;;;;1.58;1.00;;;;;;;21.49;50.39;92399.28;4883128;29;20084;-93
2021/08/30 11:40:08;;;;;;;0.50;0.50;;;;;;;21.65;45.65;92409.81;4905697;29;20047;-93
2021/08/30 11:42:37;;;;;;;0.75;0.55;;;;;;;22.19;47.65;92404.13;4937000;29;20052;-93
2021/08/30 11:45:19;;;;;;;0.88;0.52;;;;;;;21.87;49.03;92403.69;4889257;29;20036;-93
2021/08/30 11:47:47;;;;;;;1.23;0.68;;;;;;;21.04;50.25;92404.19;4931729;28;20054;-93
2021/08/30 11:50:20;;;;;;;0.60;0.60;;;;;;;21.51;50.44;92397.78;4946829;28;20385;-94
2021/08/30 11:52:48;;;;;;;0.70;0.52;;;;;;;21.56;47.85;92410.81;4973653;28;20039;-92
2021/08/30 11:55:19;;;;;;;1.23;0.90;;;;;;;22.02;46.00;92401.97;4962760;28;20039;-94
2021/08/30 11:58:02;;;;;;;1.23;0.63;;;;;;;22.44;48.30;92395.72;4946852;28;20042;-93
2021/08/30 12:00:36;;;;;;;1.77;0.82;;;;;;;21.47;49.74;92388.22;4964055;28;20047;-93
2021/08/30 12:03:37;;;;;;;0.88;0.65;;;;;;;20.74;52.26;92390.72;4978821;28;20602;-93
2021/08/30 12:06:31;;;;;;;;;;;;;;;;;;;;;
2021/08/30 12:08:57;;;;;;;0.57;0.57;;;;;;;22.24;45.87;92389.75;4985703;28;20070;-95
2021/08/30 12:11:35;;;;;;;0.60;0.55;;;;;;;22.09;45.84;92388.75;4954117;28;20102;-95
2021/08/30 12:14:12;;;;;;;0.40;0.40;;;;;;;22.41;45.92;92388.44;4949595;28;20097;-93
2021/08/30 12:16:51;;;;;;;1.60;1.00;;;;;;;22.04;46.43;92391.72;4962629;28;20026;-91
2021/08/30 12:19:19;;;;;;;0.40;0.40;;;;;;;21.33;47.82;92396.72;4949263;28;20053;-95
2021/08/30 12:21:57;;;;;;;1.58;0.73;;;;;;;21.68;51.22;92385.88;4957667;28;20038;-93
2021/08/30 12:24:27;;;;;;;1.50;0.82;;;;;;;21.62;50.94;92392.66;4958784;28;20053;-95
2021/08/30 12:27:06;;;;;;;1.00;0.52;;;;;;;22.15;49.11;92381.22;4943120;28;20140;-93
2021/08/30 12:29:40;;;;;;;1.05;0.63;;;;;;;21.86;49.75;92388.03;4943789;28;20131;-94
2021/08/30 12:32:11;;;;;;;1.20;0.50;;;;;;;21.93;48.63;92385.47;4926088;28;20505;-94
2021/08/30 12:34:43;;;;;;;2.77;0.93;;;;;;;21.63;49.25;92378.19;4962408;28;20133;-93
2021/08/30 12:37:12;;;;;;;0.50;0.50;;;;;;;21.38;48.61;92372.44;4978574;28;20070;-93
2021/08/30 12:39:51;;;;;;;0.90;0.75;;;;;;;21.69;50.46;92376.75;4975445;28;20026;-94
2021/08/30 12:42:24;;;;;;;0.93;0.70;;;;;;;21.72;51.32;92380.59;4977397;28;20054;-94
2021/08/30 12:44:57;;;;;;;0.75;0.70;;;;;;;22.12;50.22;92380.03;4945668;28;20073;-93
2021/08/30 12:47:34;;;;;;;1.63;0.90;;;;;;;22.53;49.93;92369.53;4972685;28;20038;-94
2021/08/30 12:49:59;;;;;;;0.57;0.52;;;;;;;22.08;48.42;92371.22;4976830;28;20448;-95
2021/08/30 12:52:48;;;;;;;1.30;0.80;;;;;;;22.31;48.00;92378.41;4961865;28;20096;-94
2021/08/30 12:55:30;;;;;;;0.43;0.43;;;;;;;22.32;48.76;92361.28;4977544;28;20042;-95
2021/08/30 12:58:04;;;;;;;1.27;0.88;;;;;;;21.96;49.41;92358.88;4977515;28;20088;-95
2021/08/30 13:00:38;;;;;;;0.70;0.70;;;;;;;22.06;47.72;92380.72;4977674;28;20073;-93
2021/08/30 13:03:17;;;;;;;;;;;;;;;;;;;;;
2021/08/30 13:05:59;;;;;;;0.82;0.63;;;;;;;21.67;49.05;92357.72;4966489;28;20497;-96
2021/08/30 13:08:30;;;;;;;0.45;0.38;;;;;;;22.02;48.79;92362.00;4923076;29;20055;-95
2021/08/30 13:11:09;;;;;;;1.15;0.85;;;;;;;22.05;49.80;92363.94;4953700;28;20588;-95
2021/08/30 13:13:47;;;;;;;1.23;0.82;;;;;;;21.73;49.43;92345.63;4942469;28;20054;-96
2021/08/30 13:16:23;;;;;;;0.50;0.50;;;;;;;21.55;49.43;92352.59;4940243;28;20043;-91
2021/08/30 13:18:51;;;;;;;1.55;1.05;;;;;;;21.86;49.41;92350.72;4957923;28;20057;-92
2021/08/30 13:21:25;;;;;;;0.82;0.63;;;;;;;21.75;49.16;92362.03;4957352;28;20047;-90
2021/08/30 13:23:54;;;;;;;0.57;0.50;;;;;;;21.88;47.85;92345.81;4957344;28;20053;-90
2021/08/30 13:26:37;;;;;;;;;;;;;;;;;;;;;
2021/08/30 13:29:10;;;;;;;0.45;0.45;;;;;;;22.42;48.90;92352.63;4954099;28;20043;-95
2021/08/30 13:31:49;;;;;;;0.85;0.68;;;;;;;21.89;49.47;92350.03;4958503;28;20054;-95
2021/08/30 13:34:48;;;;;;;1.95;1.40;;;;;;;22.33;47.98;92363.56;4957350;28;20071;-93
2021/08/30 13:37:25;;;;;;;0.60;0.60;;;;;;;22.23;48.01;92345.56;4955006;28;20050;-94
2021/08/30 13:43:52;;;;;;;0.82;0.70;;;;;;;22.81;44.88;92352.31;4920002;29;20047;-95
2021/08/30 13:46:25;;;;;;;0.57;0.47;;;;;;;22.81;46.14;92347.75;4921920;28;20122;-94
2021/08/30 13:49:13;;;;;;;0.50;0.50;;;;;;;22.63;47.85;92342.22;4985742;28;20035;-96
2021/08/30 13:52:15;;;;;;;0.68;0.60;;;;;;;22.53;47.00;92361.53;4990411;23;20054;-77
2021/08/30 13:54:41;;;;;;;1.25;0.88;;;;;;;22.62;44.77;92356.69;4996134;28;20266;-77
2021/08/30 13:57:07;;;;;;;1.55;0.82;;;;;;;22.30;46.07;92352.88;4978830;28;20041;-76
2021/08/30 13:59:33;;;;;;;2.42;0.65;;;;;;;22.42;46.38;92363.31;5011375;28;20049;-76
2021/08/30 14:01:59;;;;;;;0.60;0.60;;;;;;;22.42;45.90;92347.31;4974528;28;20038;-77
2021/08/30 14:04:25;;;;;;;1.45;0.80;;;;;;;21.70;47.97;92356.22;4991645;28;20078;-77
2021/08/30 14:06:51;;;;;;;0.50;0.50;;;;;;;22.13;47.26;92344.25;4993299;28;20475;-78
2021/08/30 14:09:17;;;;;;;1.27;0.68;;;;;;;22.34;46.67;92351.03;4959629;28;20504;-76
2021/08/30 14:11:43;;;;;;;1.88;1.02;;;;;;;22.78;45.68;92343.13;4975757;28;20047;-77
2021/08/30 14:14:14;;;;;;;1.00;0.90;;;;;;;22.65;46.06;92341.84;4993574;28;20548;-76
2021/08/30 14:16:41;;;;;;;1.50;0.80;;;;;;;23.19;42.54;92350.41;4976283;28;20463;-77
2021/08/30 14:19:07;;;;;;;0.98;0.75;;;;;;;23.56;43.94;92346.91;4960893;28;20035;-78
2021/08/30 14:21:33;;;;;;;0.80;0.80;;;;;;;23.49;43.44;92347.63;4981954;28;20050;-78
2021/08/30 14:23:59;;;;;;;1.58;0.82;;;;;;;23.49;44.34;92345.72;4957967;28;20047;-77
2021/08/30 14:26:26;;;;;;;1.50;1.00;;;;;;;23.46;42.96;92349.13;4975964;28;20394;-77
2021/08/30 14:28:51;;;;;;;1.67;0.80;;;;;;;23.35;39.75;92342.94;4976651;28;20050;-77
2021/08/30 14:31:17;;;;;;;0.80;0.60;;;;;;;23.26;43.47;92347.81;4976091;28;20081;-77
2021/08/30 14:33:43;;;;;;;0.55;0.50;;;;;;;22.27;46.36;92358.91;4976798;28;20031;-78
2021/08/30 14:36:08;;;;;;;2.08;0.85;;;;;;;23.26;44.39;92342.47;4993926;28;20539;-78
2021/08/30 14:38:34;;;;;;;0.98;0.75;;;;;;;23.93;42.96;92351.38;4996301;28;20052;-77
2021/08/30 14:41:01;;;;;;;1.17;0.73;;;;;;;24.29;42.58;92342.41;4979442;28;20050;-77
2021/08/30 14:43:26;;;;;;;1.23;0.80;;;;;;;24.26;40.61;92345.84;4962851;28;20461;-76
2021/08/30 14:45:52;;;;;;;0.90;0.80;;;;;;;23.37;41.81;92350.56;4977676;28;20070;-77
2021/08/30 14:48:18;;;;;;;0.90;0.77;;;;;;;23.53;41.67;92350.31;4977795;28;20038;-77
2021/08/30 14:50:47;;;;;;;0.57;0.57;;;;;;;23.88;43.00;92353.25;4942084;28;20051;-76
2021/08/30 14:53:16;;;;;;;1.63;1.23;;;;;;;23.85;42.75;92346.00;4959540;28;20051;-77
2021/08/30 14:55:43;;;;;;;0.70;0.70;;;;;;;24.02;41.71;92349.13;4959991;28;20127;-77
2021/08/30 14:58:09;;;;;;;1.23;0.95;;;;;;;24.55;41.04;92347.91;4977127;28;20468;-77
2021/08/30 15:00:35;;;;;;;0.73;0.70;;;;;;;24.37;41.61;92342.47;4978303;28;20053;-78
2021/08/30 15:03:03;;;;;;;0.75;0.60;;;;;;;23.81;41.95;92347.13;4980259;28;20045;-78
2021/08/30 15:05:29;;;;;;;1.80;0.98;;;;;;;23.20;44.34;92346.63;4964507;28;20047;-78
2021/08/30 15:07:55;;;;;;;1.50;1.00;;;;;;;23.75;41.17;92344.00;4979514;28;20381;-78
2021/08/30 15:10:20;;;;;;;0.73;0.63;;;;;;;23.43;41.41;92339.16;4978948;28;20058;-78
2021/08/30 15:12:48;;;;;;;0.98;0.75;;;;;;;23.70;42.41;92339.00;4964649;28;20043;-78
2021/08/30 15:15:14;;;;;;;1.05;0.90;;;;;;;23.73;41.94;92338.22;4982150;28;20034;-78
2021/08/30 15:17:41;;;;;;;0.88;0.60;;;;;;;23.14;42.94;92332.06;4964074;28;20319;-78
2021/08/30 15:20:08;;;;;;;1.63;0.65;;;;;;;23.09;43.54;92335.06;4964787;28;20047;-77
2021/08/30 15:22:34;;;;;;;1.35;0.85;;;;;;;23.39;42.30;92333.03;4963618;28;20047;-78
2021/08/30 15:25:02;;;;;;;1.10;0.75;;;;;;;22.59;44.00;92333.41;4979716;28;20086;-78
2021/08/30 15:27:33;;;;;;;0.82;0.77;;;;;;;22.44;44.92;92337.03;4964962;28;20064;-79
2021/08/30 15:29:59;;;;;;;0.95;0.77;;;;;;;22.81;44.22;92320.31;4980382;28;20051;-79
2021/08/30 15:32:26;;;;;;;1.65;0.95;;;;;;;23.40;44.22;92342.59;4960942;28;20098;-80
2021/08/30 15:34:52;;;;;;;1.20;0.82;;;;;;;23.90;42.65;92340.28;4984751;28;20078;-80
2021/08/30 15:37:18;;;;;;;0.82;0.65;;;;;;;24.01;42.41;92339.59;4980335;28;20497;-79
2021/08/30 15:39:44;;;;;;;1.70;1.13;;;;;;;24.21;40.85;92332.81;4944770;28;20081;-78
2021/08/30 15:42:09;;;;;;;0.70;0.65;;;;;;;24.24;40.41;92336.66;4983544;28;20042;-80
2021/08/30 15:44:36;;;;;;;1.10;0.65;;;;;;;24.20;41.05;92328.59;4986923;28;20106;-80
2021/08/30 15:47:03;;;;;;;1.05;0.70;;;;;;;23.87;41.92;92330.34;4986814;28;20031;-80
2021/08/30 15:49:29;;;;;;;1.80;0.85;;;;;;;23.97;41.51;92339.56;4984517;28;20050;-80
2021/08/30 15:51:55;;;;;;;1.02;0.93;;;;;;;23.95;41.34;92339.19;4962825;28;20106;-79
2021/08/30 15:54:21;;;;;;;1.58;1.10;;;;;;;23.23;43.32;92340.53;4972080;28;20027;-79
2021/08/30 15:56:47;;;;;;;1.45;0.85;;;;;;;23.59;41.69;92340.81;4974080;28;20074;-79
2021/08/30 15:59:13;;;;;;;1.17;0.90;;;;;;;23.49;41.85;92334.28;4972813;28;20118;-79
2021/08/30 16:01:39;;;;;;;0.63;0.63;;;;;;;23.74;42.36;92333.69;4966854;28;20568;-81
2021/08/30 16:04:10;;;;;;;1.30;0.85;;;;;;;23.89;41.02;92333.44;4959750;28;20042;-82
2021/08/30 16:06:38;;;;;;;1.23;0.93;;;;;;;23.69;41.69;92335.56;4979412;28;20054;-81
2021/08/30 16:09:05;;;;;;;0.70;0.70;;;;;;;23.51;41.64;92339.22;4963071;28;20062;-82
2021/08/30 16:11:30;;;;;;;1.13;0.75;;;;;;;23.51;41.23;92339.22;4970883;28;20173;-83
2021/08/30 16:13:57;;;;;;;0.98;0.68;;;;;;;23.64;40.72;92348.47;4981236;28;20517;-81
2021/08/30 16:16:23;;;;;;;1.05;0.63;;;;;;;23.73;40.81;92343.59;4972526;28;20074;-80
2021/08/30 16:18:49;;;;;;;0.77;0.73;;;;;;;23.65;41.05;92352.69;4979135;28;20043;-81
2021/08/30 16:21:15;;;;;;;1.10;0.82;;;;;;;23.56;40.67;92341.56;4950427;28;20138;-81
2021/08/30 16:23:41;;;;;;;1.85;0.90;;;;;;;23.34;40.60;92356.66;4978619;28;20049;-82
2021/08/30 16:26:07;;;;;;;1.50;0.98;;;;;;;23.23;41.14;92348.53;4964586;28;20106;-80
2021/08/30 16:28:33;;;;;;;2.42;0.90;;;;;;;23.30;41.57;92345.94;4963949;28;20480;-80
2021/08/30 16:30:59;;;;;;;1.35;0.82;;;;;;;23.35;42.17;92348.28;4964226;28;20049;-81
2021/08/30 16:33:27;;;;;;;1.95;1.02;;;;;;;23.34;41.36;92349.41;4962963;28;20396;-81
2021/08/30 16:35:53;;;;;;;1.17;0.85;;;;;;;23.29;41.61;92344.41;4963481;28;20055;-80
2021/08/30 16:38:19;;;;;;;2.28;1.10;;;;;;;23.13;40.46;92354.56;4980921;28;20366;-82
2021/08/30 16:40:45;;;;;;;1.20;1.00;;;;;;;23.11;41.25;92351.50;4947768;28;20065;-81
2021/08/30 16:43:12;;;;;;;1.05;0.70;;;;;;;23.01;41.29;92348.38;4961498;28;20433;-81
2021/08/30 16:45:38;;;;;;;1.15;0.80;;;;;;;22.84;41.17;92351.59;4946562;28;20070;-81
2021/08/30 16:48:04;;;;;;;1.27;0.90;;;;;;;22.80;40.48;92350.78;4978445;28;20488;-81
2021/08/30 16:50:30;;;;;;;1.33;1.08;;;;;;;22.74;41.29;92346.88;4972732;28;20051;-80
2021/08/30 16:52:56;;;;;;;0.90;0.65;;;;;;;22.66;41.12;92341.47;4965140;28;20158;-80
2021/08/30 16:55:21;;;;;;;0.82;0.70;;;;;;;22.51;42.08;92352.34;4994144;28;20069;-81
2021/08/30 16:57:47;;;;;;;1.58;0.65;;;;;;;22.34;43.64;92349.13;5000600;28;20039;-80
2021/08/30 17:00:14;;;;;;;1.35;0.88;;;;;;;22.06;43.98;92352.16;4964781;28;20058;-80
2021/08/30 17:02:41;;;;;;;1.63;1.00;;;;;;;21.72;44.42;92356.63;4987928;28;20098;-81
2021/08/30 17:05:09;;;;;;;0.82;0.45;;;;;;;21.45;44.96;92359.28;4986845;28;20102;-81
2021/08/30 17:07:36;;;;;;;1.52;1.00;;;;;;;21.23;46.20;92360.03;4975625;28;20126;-81
2021/08/30 17:10:03;;;;;;;2.33;1.17;;;;;;;21.00;46.89;92364.19;4974146;28;20042;-84
2021/08/30 17:12:29;;;;;;;1.55;1.00;;;;;;;20.83;47.03;92362.00;4944201;28;20073;-79
2021/08/30 17:14:55;;;;;;;7.80;4.15;;;;;;;20.68;47.56;92362.88;4976445;28;20167;-79
2021/08/30 17:17:21;;;;;;;5.25;3.00;;;;;;;20.52;48.26;92363.69;4972675;28;20097;-80
2021/08/30 17:19:47;;;;;;;1.58;1.00;;;;;;;20.38;48.99;92366.06;4965751;28;20046;-77
2021/08/30 17:22:13;;;;;;;2.10;0.95;;;;;;;20.26;49.61;92360.88;4973161;28;20149;-79
2021/08/30 17:24:40;;;;;;;2.92;1.58;;;;;;;20.12;50.08;92364.78;4975574;28;20043;-81
2021/08/30 17:27:05;;;;;;;3.80;2.17;;;;;;;20.00;50.35;92367.56;4992153;28;20094;-79
2021/08/30 17:29:31;;;;;;;4.95;2.00;;;;;;;19.88;50.97;92368.47;4974205;28;20456;-77
2021/08/30 17:31:57;;;;;;;1.35;0.90;;;;;;;19.79;51.65;92373.19;4974306;28;20126;-78
2021/08/30 17:34:22;;;;;;;1.50;0.90;;;;;;;19.68;51.93;92378.25;4955774;28;20094;-78
2021/08/30 17:36:49;;;;;;;1.52;0.93;;;;;;;19.59;52.26;92380.31;4971254;28;20612;-78
2021/08/30 17:39:15;;;;;;;0.88;0.63;;;;;;;19.49;52.33;92380.81;4955300;28;20051;-79
2021/08/30 17:41:40;;;;;;;1.08;0.80;;;;;;;19.40;52.59;92382.88;4974068;28;20070;-78
2021/08/30 17:44:07;;;;;;;0.80;0.70;;;;;;;19.30;53.06;92384.94;4976926;28;20031;-79
2021/08/30 17:46:34;;;;;;;1.38;0.90;;;;;;;19.20;53.37;92389.97;4991709;28;20508;-79
2021/08/30 17:49:03;;;;;;;0.88;0.70;;;;;;;19.08;53.94;92385.53;4971120;28;20047;-80
2021/08/30 17:51:33;;;;;;;1.23;0.65;;;;;;;18.94;53.92;92396.53;4988482;28;20050;-79
2021/08/30 17:53:59;;;;;;;0.45;0.43;;;;;;;18.80;54.20;92391.66;4996918;28;20110;-79
2021/08/30 17:56:26;;;;;;;0.52;0.50;;;;;;;18.69;54.41;92393.97;4978135;28;20061;-79
2021/08/30 17:58:52;;;;;;;1.17;0.82;;;;;;;18.60;54.56;92395.22;4996510;28;20051;-79
2021/08/30 18:01:17;;;;;;;0.90;0.73;;;;;;;18.50;54.70;92396.47;4963464;28;20571;-79
2021/08/30 18:03:43;;;;;;;1.05;0.73;;;;;;;18.42;54.60;92400.81;4981819;28;20050;-78
2021/08/30 18:06:09;;;;;;;0.80;0.65;;;;;;;18.31;54.93;92410.34;4999742;28;20070;-78
2021/08/30 18:08:34;;;;;;;1.15;0.82;;;;;;;18.23;55.15;92413.91;4998419;28;20526;-78
2021/08/30 18:11:00;;;;;;;1.40;0.80;;;;;;;18.12;55.38;92413.56;4982026;28;20034;-79
2021/08/30 18:13:26;;;;;;;1.35;0.60;;;;;;;18.03;55.98;92419.00;4982089;28;20062;-78
2021/08/30 18:15:51;;;;;;;0.93;0.68;;;;;;;17.94;56.11;92422.88;4983621;28;20023;-77
2021/08/30 18:18:17;;;;;;;0.50;0.50;;;;;;;17.86;56.39;92427.97;4984463;28;20133;-78
2021/08/30 18:20:44;;;;;;;0.98;0.80;;;;;;;17.78;56.42;92426.16;5001487;28;20050;-78
2021/08/30 18:23:10;;;;;;;1.00;0.68;;;;;;;17.71;56.43;92425.19;5001738;28;20471;-78
2021/08/30 18:25:39;;;;;;;0.65;0.50;;;;;;;17.63;56.57;92427.63;4984589;28;20038;-77
2021/08/30 18:28:06;;;;;;;1.45;0.80;;;;;;;17.59;56.72;92439.97;4968175;28;20082;-78
2021/08/30 18:30:32;;;;;;;0.80;0.60;;;;;;;17.52;57.06;92438.94;4980843;28;20120;-78
2021/08/30 18:32:58;;;;;;;1.02;0.88;;;;;;;17.44;57.91;92437.97;4998588;28;20118;-78
2021/08/30 18:35:24;;;;;;;1.02;0.70;;;;;;;17.39;57.60;92440.84;4997825;28;20562;-78
2021/08/30 18:37:52;;;;;;;1.02;0.70;;;;;;;17.33;57.78;92447.44;4989527;28;20043;-78
2021/08/30 18:40:23;;;;;;;0.75;0.55;;;;;;;17.27;58.18;92450.28;4969455;28;20045;-78
2021/08/30 18:42:49;;;;;;;1.15;0.70;;;;;;;17.21;58.47;92451.59;4980678;28;20047;-78
2021/08/30 18:45:16;;;;;;;1.17;0.80;;;;;;;17.17;58.59;92455.22;4979983;28;20479;-78
2021/08/30 18:47:42;;;;;;;0.85;0.60;;;;;;;17.11;58.85;92457.28;4964376;28;20066;-78
2021/08/30 18:50:09;;;;;;;1.15;0.77;;;;;;;17.08;59.11;92452.66;4963549;28;20073;-78
2021/08/30 18:52:35;;;;;;;1.15;0.68;;;;;;;17.02;59.26;92464.53;4974276;28;20094;-77
2021/08/30 18:55:00;;;;;;;0.98;0.70;;;;;;;16.98;59.41;92467.06;4981325;28;20042;-77